sensor_id;sensor_type;location;lat;lon;timestamp;pressure;altitude;pressure_sealevel;temperature;humidity
22181;BME280;11256;50.830;12.834;2024-02-04T00:02:42;98021.38;;;8.56;80.93
22181;BME280;11256;50.830;12.834;2024-02-04T00:07:42;98016.25;;;8.59;81.03
22181;BME280;11256;50.830;12.834;2024-02-04T00:12:43;98007.91;;;8.61;80.86
22181;BME280;11256;50.830;12.834;2024-02-04T00:17:43;98029.50;;;8.61;81.69
22181;BME280;11256;50.830;12.834;2024-02-04T00:22:43;98024.63;;;8.58;80.95
22181;BME280;11256;50.830;12.834;2024-02-04T00:27:44;98010.03;;;8.59;81.17
22181;BME280;11256;50.830;12.834;2024-02-04T00:32:44;98022.44;;;8.60;81.77
22181;BME280;11256;50.830;12.834;2024-02-04T00:37:45;98023.03;;;8.62;82.13
22181;BME280;11256;50.830;12.834;2024-02-04T00:42:45;98032.72;;;8.58;81.89
22181;BME280;11256;50.830;12.834;2024-02-04T00:47:45;98021.91;;;8.58;81.34
22181;BME280;11256;50.830;12.834;2024-02-04T00:52:46;98017.38;;;8.63;81.34
22181;BME280;11256;50.830;12.834;2024-02-04T00:57:46;98009.53;;;8.62;81.50
22181;BME280;11256;50.830;12.834;2024-02-04T01:02:46;98011.69;;;8.65;81.87
22181;BME280;11256;50.830;12.834;2024-02-04T01:07:47;98027.63;;;8.66;81.60
22181;BME280;11256;50.830;12.834;2024-02-04T01:12:47;98012.72;;;8.59;81.90
22181;BME280;11256;50.830;12.834;2024-02-04T01:17:47;98016.53;;;8.63;81.56
22181;BME280;11256;50.830;12.834;2024-02-04T01:22:48;98024.13;;;8.66;81.49
22181;BME280;11256;50.830;12.834;2024-02-04T01:27:48;98029.25;;;8.67;81.61
22181;BME280;11256;50.830;12.834;2024-02-04T01:32:48;98032.22;;;8.66;81.60
22181;BME280;11256;50.830;12.834;2024-02-04T01:37:49;98017.59;;;8.57;80.99
22181;BME280;11256;50.830;12.834;2024-02-04T01:42:49;98007.31;;;8.59;80.83
22181;BME280;11256;50.830;12.834;2024-02-04T01:47:49;98001.38;;;8.57;81.06
22181;BME280;11256;50.830;12.834;2024-02-04T01:52:51;97989.47;;;8.53;81.28
22181;BME280;11256;50.830;12.834;2024-02-04T01:57:51;97980.81;;;8.51;81.08
22181;BME280;11256;50.830;12.834;2024-02-04T02:02:52;97981.91;;;8.55;81.48
22181;BME280;11256;50.830;12.834;2024-02-04T02:07:52;97970.22;;;8.44;80.91
22181;BME280;11256;50.830;12.834;2024-02-04T02:13:00;97985.94;;;8.47;81.09
22181;BME280;11256;50.830;12.834;2024-02-04T02:18:10;97976.47;;;8.45;81.36
22181;BME280;11256;50.830;12.834;2024-02-04T02:23:14;97964.03;;;8.49;81.42
22181;BME280;11256;50.830;12.834;2024-02-04T02:28:17;97950.84;;;8.52;81.46
22181;BME280;11256;50.830;12.834;2024-02-04T02:33:18;97959.22;;;8.51;81.38
22181;BME280;11256;50.830;12.834;2024-02-04T02:38:25;97960.28;;;8.55;81.48
22181;BME280;11256;50.830;12.834;2024-02-04T02:43:27;97962.19;;;8.54;81.56
22181;BME280;11256;50.830;12.834;2024-02-04T02:48:28;97976.00;;;8.58;81.64
22181;BME280;11256;50.830;12.834;2024-02-04T02:53:29;97964.66;;;8.56;81.79
22181;BME280;11256;50.830;12.834;2024-02-04T02:58:29;97985.72;;;8.59;81.72
22181;BME280;11256;50.830;12.834;2024-02-04T03:03:29;97990.56;;;8.57;81.65
22181;BME280;11256;50.830;12.834;2024-02-04T03:08:30;97984.03;;;8.48;81.82
22181;BME280;11256;50.830;12.834;2024-02-04T03:13:30;97982.72;;;8.55;81.48
22181;BME280;11256;50.830;12.834;2024-02-04T03:18:31;97975.72;;;8.54;82.02
22181;BME280;11256;50.830;12.834;2024-02-04T03:23:31;97985.72;;;8.59;81.98
22181;BME280;11256;50.830;12.834;2024-02-04T03:28:31;97981.41;;;8.58;82.07
22181;BME280;11256;50.830;12.834;2024-02-04T03:33:32;97970.00;;;8.51;82.06
22181;BME280;11256;50.830;12.834;2024-02-04T03:38:33;97980.56;;;8.52;82.13
22181;BME280;11256;50.830;12.834;2024-02-04T03:43:36;97952.16;;;8.45;81.27
22181;BME280;11256;50.830;12.834;2024-02-04T03:48:37;97971.09;;;8.50;81.52
22181;BME280;11256;50.830;12.834;2024-02-04T03:53:37;97966.44;;;8.45;81.11
22181;BME280;11256;50.830;12.834;2024-02-04T03:58:38;97966.16;;;8.42;80.93
22181;BME280;11256;50.830;12.834;2024-02-04T04:03:42;97968.31;;;8.40;80.99
22181;BME280;11256;50.830;12.834;2024-02-04T04:08:42;97960.19;;;8.35;80.93
22181;BME280;11256;50.830;12.834;2024-02-04T04:13:43;97959.59;;;8.28;81.32
22181;BME280;11256;50.830;12.834;2024-02-04T04:18:43;97966.09;;;8.32;80.96
22181;BME280;11256;50.830;12.834;2024-02-04T04:23:43;97959.88;;;8.31;81.05
22181;BME280;11256;50.830;12.834;2024-02-04T04:28:44;97945.56;;;8.31;81.41
22181;BME280;11256;50.830;12.834;2024-02-04T04:33:44;97936.38;;;8.32;81.51
22181;BME280;11256;50.830;12.834;2024-02-04T04:38:44;97931.56;;;8.34;81.97
22181;BME280;11256;50.830;12.834;2024-02-04T04:43:45;97914.53;;;8.33;81.60
22181;BME280;11256;50.830;12.834;2024-02-04T04:48:45;97915.66;;;8.37;81.54
22181;BME280;11256;50.830;12.834;2024-02-04T04:53:45;97919.16;;;8.38;81.66
22181;BME280;11256;50.830;12.834;2024-02-04T04:58:46;97930.50;;;8.40;81.71
22181;BME280;11256;50.830;12.834;2024-02-04T05:03:46;97923.50;;;8.39;81.38
22181;BME280;11256;50.830;12.834;2024-02-04T05:08:48;97907.84;;;8.41;81.15
22181;BME280;11256;50.830;12.834;2024-02-04T05:13:48;97901.91;;;8.39;81.34
22181;BME280;11256;50.830;12.834;2024-02-04T05:18:48;97876.75;;;8.33;81.47
22181;BME280;11256;50.830;12.834;2024-02-04T05:23:49;97895.44;;;8.45;81.49
22181;BME280;11256;50.830;12.834;2024-02-04T05:28:49;97868.72;;;8.48;81.45
22181;BME280;11256;50.830;12.834;2024-02-04T05:33:51;97851.69;;;8.48;81.57
22181;BME280;11256;50.830;12.834;2024-02-04T05:38:52;97860.38;;;8.50;82.17
22181;BME280;11256;50.830;12.834;2024-02-04T05:43:52;97878.69;;;8.48;82.67
22181;BME280;11256;50.830;12.834;2024-02-04T05:48:52;97874.94;;;8.54;83.11
22181;BME280;11256;50.830;12.834;2024-02-04T05:53:53;97858.22;;;8.52;83.19
22181;BME280;11256;50.830;12.834;2024-02-04T05:58:53;97871.19;;;8.60;83.11
22181;BME280;11256;50.830;12.834;2024-02-04T06:03:53;97876.31;;;8.56;82.85
22181;BME280;11256;50.830;12.834;2024-02-04T06:08:54;97878.78;;;8.63;83.02
22181;BME280;11256;50.830;12.834;2024-02-04T06:13:54;97860.94;;;8.57;83.53
22181;BME280;11256;50.830;12.834;2024-02-04T06:18:54;97863.91;;;8.60;83.17
22181;BME280;11256;50.830;12.834;2024-02-04T06:23:57;97859.34;;;8.61;83.01
22181;BME280;11256;50.830;12.834;2024-02-04T06:28:57;97857.69;;;8.60;83.60
22181;BME280;11256;50.830;12.834;2024-02-04T06:33:57;97860.69;;;8.58;82.96
22181;BME280;11256;50.830;12.834;2024-02-04T06:38:58;97850.16;;;8.62;83.64
22181;BME280;11256;50.830;12.834;2024-02-04T06:43:58;97855.31;;;8.63;83.61
22181;BME280;11256;50.830;12.834;2024-02-04T06:48:58;97856.66;;;8.61;84.58
22181;BME280;11256;50.830;12.834;2024-02-04T06:53:59;97828.81;;;8.60;85.03
22181;BME280;11256;50.830;12.834;2024-02-04T06:59:01;97855.56;;;8.62;84.94
22181;BME280;11256;50.830;12.834;2024-02-04T07:04:01;97865.28;;;8.63;84.70
22181;BME280;11256;50.830;12.834;2024-02-04T07:09:01;97861.25;;;8.65;84.82
22181;BME280;11256;50.830;12.834;2024-02-04T07:14:02;97849.34;;;8.66;84.35
22181;BME280;11256;50.830;12.834;2024-02-04T07:19:02;97853.69;;;8.67;84.59
22181;BME280;11256;50.830;12.834;2024-02-04T07:24:03;97844.78;;;8.67;84.32
22181;BME280;11256;50.830;12.834;2024-02-04T07:29:03;97845.34;;;8.74;84.00
22181;BME280;11256;50.830;12.834;2024-02-04T07:34:05;97854.81;;;8.76;84.01
22181;BME280;11256;50.830;12.834;2024-02-04T07:39:05;97852.91;;;8.82;84.74
22181;BME280;11256;50.830;12.834;2024-02-04T07:44:06;97839.69;;;8.80;83.82
22181;BME280;11256;50.830;12.834;2024-02-04T07:49:07;97838.88;;;8.80;84.66
22181;BME280;11256;50.830;12.834;2024-02-04T07:54:07;97834.03;;;8.87;83.97
22181;BME280;11256;50.830;12.834;2024-02-04T07:59:07;97853.53;;;8.94;84.04
22181;BME280;11256;50.830;12.834;2024-02-04T08:04:08;97847.56;;;8.92;83.97
22181;BME280;11256;50.830;12.834;2024-02-04T08:09:10;97829.72;;;8.96;83.81
22181;BME280;11256;50.830;12.834;2024-02-04T08:14:11;97826.50;;;8.99;84.04
22181;BME280;11256;50.830;12.834;2024-02-04T08:19:14;97824.09;;;9.02;84.66
22181;BME280;11256;50.830;12.834;2024-02-04T08:24:14;97830.84;;;9.05;84.68
22181;BME280;11256;50.830;12.834;2024-02-04T08:29:15;97826.81;;;9.12;84.50
22181;BME280;11256;50.830;12.834;2024-02-04T08:34:15;97823.56;;;9.15;84.20
22181;BME280;11256;50.830;12.834;2024-02-04T08:39:17;97826.53;;;9.19;84.35
22181;BME280;11256;50.830;12.834;2024-02-04T08:44:17;97834.13;;;9.22;84.26
22181;BME280;11256;50.830;12.834;2024-02-04T08:49:18;97835.22;;;9.21;84.66
22181;BME280;11256;50.830;12.834;2024-02-04T08:54:19;97824.94;;;9.28;84.86
22181;BME280;11256;50.830;12.834;2024-02-04T08:59:20;97841.16;;;9.28;84.71
22181;BME280;11256;50.830;12.834;2024-02-04T09:04:21;97827.66;;;9.33;84.51
22181;BME280;11256;50.830;12.834;2024-02-04T09:09:21;97821.16;;;9.34;84.16
22181;BME280;11256;50.830;12.834;2024-02-04T09:14:22;97811.44;;;9.33;84.53
22181;BME280;11256;50.830;12.834;2024-02-04T09:19:23;97809.25;;;9.40;83.73
22181;BME280;11256;50.830;12.834;2024-02-04T09:24:24;97813.06;;;9.44;84.02
22181;BME280;11256;50.830;12.834;2024-02-04T09:29:25;97834.69;;;9.44;83.98
22181;BME280;11256;50.830;12.834;2024-02-04T09:34:26;97829.28;;;9.54;83.76
22181;BME280;11256;50.830;12.834;2024-02-04T09:39:27;97827.94;;;9.56;84.25
22181;BME280;11256;50.830;12.834;2024-02-04T09:44:30;97827.13;;;9.66;83.79
22181;BME280;11256;50.830;12.834;2024-02-04T09:49:32;97834.16;;;9.72;83.48
22181;BME280;11256;50.830;12.834;2024-02-04T09:54:34;97822.25;;;9.73;83.40
22181;BME280;11256;50.830;12.834;2024-02-04T09:59:39;97838.75;;;9.76;83.25
22181;BME280;11256;50.830;12.834;2024-02-04T10:04:39;97835.25;;;9.71;83.33
22181;BME280;11256;50.830;12.834;2024-02-04T10:09:40;97830.91;;;9.75;83.80
22181;BME280;11256;50.830;12.834;2024-02-04T10:14:40;97814.69;;;9.75;83.67
22181;BME280;11256;50.830;12.834;2024-02-04T10:19:41;97812.50;;;9.77;83.81
22181;BME280;11256;50.830;12.834;2024-02-04T10:24:42;97803.28;;;9.78;83.34
22181;BME280;11256;50.830;12.834;2024-02-04T10:29:42;97800.31;;;9.79;83.27
22181;BME280;11256;50.830;12.834;2024-02-04T10:34:43;97787.59;;;9.85;83.58
22181;BME280;11256;50.830;12.834;2024-02-04T10:39:45;97768.63;;;9.85;83.16
22181;BME280;11256;50.830;12.834;2024-02-04T10:44:48;97763.78;;;9.87;82.86
22181;BME280;11256;50.830;12.834;2024-02-04T10:49:52;97761.59;;;9.89;82.79
22181;BME280;11256;50.830;12.834;2024-02-04T10:54:54;97729.41;;;9.82;83.04
22181;BME280;11256;50.830;12.834;2024-02-04T10:59:56;97730.75;;;9.90;82.56
22181;BME280;11256;50.830;12.834;2024-02-04T11:04:58;97735.59;;;9.98;82.72
22181;BME280;11256;50.830;12.834;2024-02-04T11:10:01;97712.84;;;9.99;82.32
22181;BME280;11256;50.830;12.834;2024-02-04T11:15:04;97699.34;;;9.94;81.84
22181;BME280;11256;50.830;12.834;2024-02-04T11:20:28;97704.47;;;10.10;81.81
22181;BME280;11256;50.830;12.834;2024-02-04T11:25:48;97702.56;;;10.06;81.70
22181;BME280;11256;50.830;12.834;2024-02-04T11:30:49;97693.34;;;10.07;81.64
22181;BME280;11256;50.830;12.834;2024-02-04T11:36:03;97697.69;;;10.03;81.29
22181;BME280;11256;50.830;12.834;2024-02-04T11:41:04;97693.06;;;10.03;80.90
22181;BME280;11256;50.830;12.834;2024-02-04T11:46:05;97695.00;;;10.08;81.10
22181;BME280;11256;50.830;12.834;2024-02-04T11:51:05;97692.78;;;10.15;80.83
22181;BME280;11256;50.830;12.834;2024-02-04T11:56:08;97702.53;;;10.16;80.58
22181;BME280;11256;50.830;12.834;2024-02-04T12:01:10;97697.94;;;10.16;80.70
22181;BME280;11256;50.830;12.834;2024-02-04T12:06:11;97677.06;;;10.22;80.43
22181;BME280;11256;50.830;12.834;2024-02-04T12:11:16;97690.59;;;10.22;80.44
22181;BME280;11256;50.830;12.834;2024-02-04T12:16:17;97694.41;;;10.21;80.50
22181;BME280;11256;50.830;12.834;2024-02-04T12:21:18;97678.66;;;10.23;80.12
22181;BME280;11256;50.830;12.834;2024-02-04T12:26:19;97689.50;;;10.23;80.60
22181;BME280;11256;50.830;12.834;2024-02-04T12:31:21;97694.91;;;10.28;80.60
22181;BME280;11256;50.830;12.834;2024-02-04T12:36:21;97699.22;;;10.29;80.67
22181;BME280;11256;50.830;12.834;2024-02-04T12:41:22;97697.88;;;10.26;80.99
22181;BME280;11256;50.830;12.834;2024-02-04T12:46:24;97665.13;;;10.23;81.45
22181;BME280;11256;50.830;12.834;2024-02-04T12:51:28;97618.13;;;9.94;82.10
22181;BME280;11256;50.830;12.834;2024-02-04T12:56:48;97683.03;;;10.24;81.88
22181;BME280;11256;50.830;12.834;2024-02-04T13:01:54;97689.75;;;10.26;81.18
22181;BME280;11256;50.830;12.834;2024-02-04T13:06:55;97674.84;;;10.29;81.71
22181;BME280;11256;50.830;12.834;2024-02-04T13:12:06;97652.13;;;10.25;81.99
22181;BME280;11256;50.830;12.834;2024-02-04T13:17:10;97660.78;;;10.27;81.71
22181;BME280;11256;50.830;12.834;2024-02-04T13:22:11;97674.06;;;10.28;81.79
22181;BME280;11256;50.830;12.834;2024-02-04T13:27:14;97668.38;;;10.30;81.88
22181;BME280;11256;50.830;12.834;2024-02-04T13:32:15;97667.25;;;10.31;82.89
22181;BME280;11256;50.830;12.834;2024-02-04T13:37:15;97662.94;;;10.30;81.91
22181;BME280;11256;50.830;12.834;2024-02-04T13:42:16;97651.56;;;10.28;81.97
22181;BME280;11256;50.830;12.834;2024-02-04T13:47:16;97664.06;;;10.24;81.80
22181;BME280;11256;50.830;12.834;2024-02-04T13:52:17;97661.06;;;10.20;81.28
22181;BME280;11256;50.830;12.834;2024-02-04T13:57:18;97669.50;;;10.19;81.66
22181;BME280;11256;50.830;12.834;2024-02-04T14:02:18;97673.28;;;10.18;81.50
22181;BME280;11256;50.830;12.834;2024-02-04T14:07:18;97653.53;;;10.12;82.61
22181;BME280;11256;50.830;12.834;2024-02-04T14:12:20;97670.59;;;10.13;82.01
22181;BME280;11256;50.830;12.834;2024-02-04T14:17:20;97675.47;;;10.16;82.04
22181;BME280;11256;50.830;12.834;2024-02-04T14:22:21;97670.59;;;10.13;81.86
22181;BME280;11256;50.830;12.834;2024-02-04T14:27:23;97662.50;;;10.08;81.93
22181;BME280;11256;50.830;12.834;2024-02-04T14:32:24;97666.28;;;10.07;81.60
22181;BME280;11256;50.830;12.834;2024-02-04T14:37:25;97670.91;;;10.06;81.97
22181;BME280;11256;50.830;12.834;2024-02-04T14:42:26;97681.19;;;10.04;81.57
22181;BME280;11256;50.830;12.834;2024-02-04T14:47:27;97673.88;;;10.05;81.67
22181;BME280;11256;50.830;12.834;2024-02-04T14:52:28;97658.16;;;10.02;82.06
22181;BME280;11256;50.830;12.834;2024-02-04T14:57:29;97659.53;;;10.04;82.22
22181;BME280;11256;50.830;12.834;2024-02-04T15:02:29;97660.34;;;10.00;82.30
22181;BME280;11256;50.830;12.834;2024-02-04T15:07:30;97658.72;;;9.99;82.57
22181;BME280;11256;50.830;12.834;2024-02-04T15:12:31;97646.28;;;9.98;82.52
22181;BME280;11256;50.830;12.834;2024-02-04T15:17:33;97661.97;;;9.96;82.33
22181;BME280;11256;50.830;12.834;2024-02-04T15:22:34;97672.28;;;9.94;82.92
22181;BME280;11256;50.830;12.834;2024-02-04T15:27:35;97666.34;;;9.92;83.13
22181;BME280;11256;50.830;12.834;2024-02-04T15:32:36;97665.25;;;9.93;82.69
22181;BME280;11256;50.830;12.834;2024-02-04T15:37:38;97639.84;;;9.79;82.68
22181;BME280;11256;50.830;12.834;2024-02-04T15:42:40;97656.56;;;9.91;82.93
22181;BME280;11256;50.830;12.834;2024-02-04T15:47:49;97653.34;;;9.89;82.54
22181;BME280;11256;50.830;12.834;2024-02-04T15:52:51;97646.03;;;9.89;82.58
22181;BME280;11256;50.830;12.834;2024-02-04T15:57:53;97645.22;;;9.89;82.32
22181;BME280;11256;50.830;12.834;2024-02-04T16:02:57;97629.25;;;9.87;82.45
22181;BME280;11256;50.830;12.834;2024-02-04T16:07:59;97644.16;;;9.85;82.39
22181;BME280;11256;50.830;12.834;2024-02-04T16:13:00;97629.00;;;9.84;82.40
22181;BME280;11256;50.830;12.834;2024-02-04T16:18:04;97624.69;;;9.83;82.39
22181;BME280;11256;50.830;12.834;2024-02-04T16:23:06;97620.34;;;9.82;82.41
22181;BME280;11256;50.830;12.834;2024-02-04T16:28:07;97608.47;;;9.78;82.20
22181;BME280;11256;50.830;12.834;2024-02-04T16:33:08;97610.91;;;9.79;82.11
22181;BME280;11256;50.830;12.834;2024-02-04T16:38:08;97603.06;;;9.78;82.19
22181;BME280;11256;50.830;12.834;2024-02-04T16:43:09;97608.47;;;9.78;81.99
22181;BME280;11256;50.830;12.834;2024-02-04T16:48:10;97607.94;;;9.76;82.01
22181;BME280;11256;50.830;12.834;2024-02-04T16:53:10;97613.88;;;9.73;82.01
22181;BME280;11256;50.830;12.834;2024-02-04T16:58:13;97609.03;;;9.75;81.74
22181;BME280;11256;50.830;12.834;2024-02-04T17:03:14;97600.91;;;9.75;82.17
22181;BME280;11256;50.830;12.834;2024-02-04T17:08:15;97591.16;;;9.74;82.04
22181;BME280;11256;50.830;12.834;2024-02-04T17:13:16;97584.94;;;9.73;82.15
22181;BME280;11256;50.830;12.834;2024-02-04T17:18:41;97570.88;;;9.71;82.24
22181;BME280;11256;50.830;12.834;2024-02-04T17:23:44;97585.19;;;9.77;82.66
22181;BME280;11256;50.830;12.834;2024-02-04T17:28:51;97551.94;;;9.71;81.94
22181;BME280;11256;50.830;12.834;2024-02-04T17:33:52;97559.25;;;9.71;82.27
22181;BME280;11256;50.830;12.834;2024-02-04T17:38:53;97558.16;;;9.72;81.75
22181;BME280;11256;50.830;12.834;2024-02-04T17:43:54;97542.19;;;9.70;82.75
22181;BME280;11256;50.830;12.834;2024-02-04T17:48:54;97573.88;;;9.70;82.39
22181;BME280;11256;50.830;12.834;2024-02-04T17:53:55;97570.63;;;9.68;82.19
22181;BME280;11256;50.830;12.834;2024-02-04T17:58:56;97583.06;;;9.69;82.50
22181;BME280;11256;50.830;12.834;2024-02-04T18:03:57;97582.78;;;9.70;83.08
22181;BME280;11256;50.830;12.834;2024-02-04T18:08:58;97568.47;;;9.70;83.15
22181;BME280;11256;50.830;12.834;2024-02-04T18:13:59;97564.69;;;9.66;82.58
22181;BME280;11256;50.830;12.834;2024-02-04T18:19:01;97569.00;;;9.67;82.64
22181;BME280;11256;50.830;12.834;2024-02-04T18:24:03;97545.19;;;9.69;83.08
22181;BME280;11256;50.830;12.834;2024-02-04T18:29:05;97522.75;;;9.68;83.00
22181;BME280;11256;50.830;12.834;2024-02-04T18:34:06;97528.16;;;9.68;83.20
22181;BME280;11256;50.830;12.834;2024-02-04T18:39:07;97534.34;;;9.69;83.58
22181;BME280;11256;50.830;12.834;2024-02-04T18:44:08;97546.28;;;9.68;83.19
22181;BME280;11256;50.830;12.834;2024-02-04T18:49:11;97544.94;;;9.65;83.25
22181;BME280;11256;50.830;12.834;2024-02-04T18:54:12;97539.78;;;9.69;83.65
22181;BME280;11256;50.830;12.834;2024-02-04T18:59:13;97559.78;;;9.68;83.22
22181;BME280;11256;50.830;12.834;2024-02-04T19:04:15;97569.00;;;9.67;83.68
22181;BME280;11256;50.830;12.834;2024-02-04T19:09:16;97556.56;;;9.66;83.49
22181;BME280;11256;50.830;12.834;2024-02-04T19:14:16;97566.81;;;9.69;84.01
22181;BME280;11256;50.830;12.834;2024-02-04T19:19:20;97546.81;;;9.70;83.77
22181;BME280;11256;50.830;12.834;2024-02-04T19:24:21;97548.44;;;9.71;84.19
22181;BME280;11256;50.830;12.834;2024-02-04T19:29:24;97560.38;;;9.65;83.68
22181;BME280;11256;50.830;12.834;2024-02-04T19:34:30;97551.69;;;9.68;84.58
22181;BME280;11256;50.830;12.834;2024-02-04T19:39:31;97547.09;;;9.68;84.43
22181;BME280;11256;50.830;12.834;2024-02-04T19:44:32;97554.38;;;9.68;85.04
22181;BME280;11256;50.830;12.834;2024-02-04T19:49:33;97540.06;;;9.67;85.04
22181;BME280;11256;50.830;12.834;2024-02-04T19:54:34;97517.06;;;9.70;84.71
22181;BME280;11256;50.830;12.834;2024-02-04T19:59:35;97525.69;;;9.72;84.51
22181;BME280;11256;50.830;12.834;2024-02-04T20:04:37;97526.25;;;9.69;85.27
22181;BME280;11256;50.830;12.834;2024-02-04T20:09:38;97520.28;;;9.72;85.01
22181;BME280;11256;50.830;12.834;2024-02-04T20:14:39;97534.63;;;9.72;85.46
22181;BME280;11256;50.830;12.834;2024-02-04T20:19:40;97525.19;;;9.70;86.19
22181;BME280;11256;50.830;12.834;2024-02-04T20:24:42;97510.28;;;9.72;85.11
22181;BME280;11256;50.830;12.834;2024-02-04T20:29:43;97502.41;;;9.76;85.45
22181;BME280;11256;50.830;12.834;2024-02-04T20:34:45;97509.47;;;9.72;85.62
22181;BME280;11256;50.830;12.834;2024-02-04T20:39:46;97513.25;;;9.76;86.31
22181;BME280;11256;50.830;12.834;2024-02-04T20:44:47;97521.09;;;9.72;85.75
22181;BME280;11256;50.830;12.834;2024-02-04T20:49:48;97509.19;;;9.73;85.18
22181;BME280;11256;50.830;12.834;2024-02-04T20:54:49;97512.16;;;9.77;85.32
22181;BME280;11256;50.830;12.834;2024-02-04T20:59:50;97495.38;;;9.75;85.14
22181;BME280;11256;50.830;12.834;2024-02-04T21:04:50;97525.09;;;9.80;85.51
22181;BME280;11256;50.830;12.834;2024-02-04T21:09:51;97518.63;;;9.81;85.15
22181;BME280;11256;50.830;12.834;2024-02-04T21:14:52;97488.06;;;9.75;84.87
22181;BME280;11256;50.830;12.834;2024-02-04T21:19:53;97504.28;;;9.80;85.84
22181;BME280;11256;50.830;12.834;2024-02-04T21:24:54;97496.44;;;9.79;85.54
22181;BME280;11256;50.830;12.834;2024-02-04T21:29:54;97498.63;;;9.77;86.37
22181;BME280;11256;50.830;12.834;2024-02-04T21:34:55;97480.53;;;9.72;86.74
22181;BME280;11256;50.830;12.834;2024-02-04T21:39:56;97482.91;;;9.74;86.43
22181;BME280;11256;50.830;12.834;2024-02-04T21:44:57;97484.03;;;9.68;86.95
22181;BME280;11256;50.830;12.834;2024-02-04T21:50:00;97466.19;;;9.67;86.85
22181;BME280;11256;50.830;12.834;2024-02-04T21:55:02;97471.59;;;9.67;86.61
22181;BME280;11256;50.830;12.834;2024-02-04T22:00:04;97463.50;;;9.67;87.22
22181;BME280;11256;50.830;12.834;2024-02-04T22:05:05;97460.78;;;9.67;87.26
22181;BME280;11256;50.830;12.834;2024-02-04T22:10:08;97458.63;;;9.64;87.75
22181;BME280;11256;50.830;12.834;2024-02-04T22:15:09;97464.59;;;9.66;87.05
22181;BME280;11256;50.830;12.834;2024-02-04T22:20:10;97453.50;;;9.67;87.31
22181;BME280;11256;50.830;12.834;2024-02-04T22:25:11;97445.09;;;9.64;87.60
22181;BME280;11256;50.830;12.834;2024-02-04T22:30:12;97438.06;;;9.68;87.33
22181;BME280;11256;50.830;12.834;2024-02-04T22:35:13;97439.16;;;9.67;86.89
22181;BME280;11256;50.830;12.834;2024-02-04T22:40:14;97432.38;;;9.69;87.46
22181;BME280;11256;50.830;12.834;2024-02-04T22:45:15;97439.16;;;9.67;87.71
22181;BME280;11256;50.830;12.834;2024-02-04T22:50:16;97435.91;;;9.65;87.76
22181;BME280;11256;50.830;12.834;2024-02-04T22:55:18;97422.91;;;9.67;87.75
22181;BME280;11256;50.830;12.834;2024-02-04T23:00:19;97419.69;;;9.65;87.87
22181;BME280;11256;50.830;12.834;2024-02-04T23:05:29;97420.25;;;9.62;87.51
22181;BME280;11256;50.830;12.834;2024-02-04T23:10:30;97429.97;;;9.63;87.37
22181;BME280;11256;50.830;12.834;2024-02-04T23:15:31;97430.50;;;9.65;87.51
22181;BME280;11256;50.830;12.834;2024-02-04T23:20:32;97415.66;;;9.62;87.54
22181;BME280;11256;50.830;12.834;2024-02-04T23:25:34;97415.06;;;9.65;87.24
22181;BME280;11256;50.830;12.834;2024-02-04T23:30:35;97421.31;;;9.66;87.63
22181;BME280;11256;50.830;12.834;2024-02-04T23:35:36;97438.31;;;9.66;87.48
22181;BME280;11256;50.830;12.834;2024-02-04T23:40:37;97426.13;;;9.69;86.94
22181;BME280;11256;50.830;12.834;2024-02-04T23:45:38;97399.19;;;9.59;87.83
22181;BME280;11256;50.830;12.834;2024-02-04T23:50:40;97415.91;;;9.61;87.82
22181;BME280;11256;50.830;12.834;2024-02-04T23:55:41;97412.16;;;9.57;88.41
